TimeAKDT,TemperatureF,Dew PointF,Humidity,Sea Level PressureIn,VisibilityMPH,Wind Direction,Wind SpeedMPH,Gust SpeedMPH,PrecipitationIn,Events,Conditions,WindDirDegrees,DateUTC
12:19 AM,55.4,55.4,100,29.65,10.0,South,6.9,-,0.01,Rain,Light Rain,190,2013-06-26 08:19:00
12:39 AM,55.4,55.4,100,29.65,6.0,SSW,6.9,-,0.03,Rain,Light Rain,200,2013-06-26 08:39:00
12:48 AM,55.4,55.4,100,29.65,4.0,SSW,9.2,-,0.05,Rain,Rain,210,2013-06-26 08:48:00
12:53 AM,55.9,55.9,100,29.66,4.0,SSW,8.1,-,0.06,Rain,Rain,210,2013-06-26 08:53:00
1:53 AM,55.0,55.0,100,29.68,8.0,SSW,3.5,-,0.08,Rain,Light Rain,200,2013-06-26 09:53:00
2:10 AM,55.4,55.4,100,29.68,9.0,Variable,3.5,-,0.01,Rain,Light Rain,0,2013-06-26 10:10:00
2:53 AM,55.9,55.9,100,29.69,10.0,Calm,Calm,-,0.02,Rain,Light Rain,0,2013-06-26 10:53:00
3:10 AM,55.4,55.4,100,29.69,9.0,Calm,Calm,-,0.00,Rain,Light Rain,0,2013-06-26 11:10:00
3:49 AM,55.4,55.4,100,29.70,10.0,Calm,Calm,-,0.00,,Overcast,0,2013-06-26 11:49:00
3:53 AM,55.9,55.0,97,29.71,10.0,Calm,Calm,-,0.00,,Overcast,0,2013-06-26 11:53:00
4:53 AM,55.9,55.0,97,29.72,10.0,North,4.6,-,N/A,,Overcast,350,2013-06-26 12:53:00
5:53 AM,57.0,55.9,96,29.73,10.0,NNW,5.8,-,N/A,,Overcast,330,2013-06-26 13:53:00
6:53 AM,57.0,55.9,96,29.75,10.0,Calm,Calm,-,N/A,,Overcast,0,2013-06-26 14:53:00
7:41 AM,57.2,57.2,100,29.76,10.0,NW,4.6,-,N/A,,Overcast,320,2013-06-26 15:41:00
7:53 AM,57.9,57.0,97,29.76,10.0,West,5.8,-,N/A,,Overcast,280,2013-06-26 15:53:00
8:07 AM,57.2,55.4,94,29.76,10.0,WNW,9.2,-,N/A,,Overcast,300,2013-06-26 16:07:00
8:14 AM,57.2,55.4,94,29.76,10.0,NW,10.4,-,N/A,,Overcast,310,2013-06-26 16:14:00
8:53 AM,57.9,55.0,90,29.77,10.0,NW,10.4,-,N/A,,Mostly Cloudy,310,2013-06-26 16:53:00
9:53 AM,59.0,54.0,83,29.77,10.0,WNW,8.1,-,N/A,,Mostly Cloudy,290,2013-06-26 17:53:00
10:07 AM,59.0,53.6,82,29.77,10.0,West,6.9,-,N/A,,Mostly Cloudy,280,2013-06-26 18:07:00
10:53 AM,60.1,54.0,80,29.78,10.0,West,5.8,-,N/A,,Mostly Cloudy,270,2013-06-26 18:53:00
11:53 AM,61.0,55.0,81,29.80,10.0,SW,5.8,-,N/A,,Overcast,220,2013-06-26 19:53:00
12:53 PM,62.1,55.9,80,29.82,10.0,SW,5.8,-,N/A,,Overcast,230,2013-06-26 20:53:00
1:53 PM,63.0,55.0,75,29.83,10.0,SW,3.5,-,N/A,,Overcast,230,2013-06-26 21:53:00
2:53 PM,63.0,53.1,70,29.84,10.0,SW,3.5,-,N/A,,Overcast,220,2013-06-26 22:53:00
3:53 PM,63.0,53.1,70,29.85,10.0,SSW,3.5,-,N/A,,Mostly Cloudy,200,2013-06-26 23:53:00
4:53 PM,61.0,54.0,78,29.86,10.0,Calm,Calm,-,N/A,,Overcast,0,2013-06-27 00:53:00
5:53 PM,62.1,55.0,78,29.87,10.0,Calm,Calm,-,N/A,,Mostly Cloudy,0,2013-06-27 01:53:00
6:53 PM,63.0,55.0,75,29.87,10.0,South,3.5,-,N/A,,Mostly Cloudy,170,2013-06-27 02:53:00
7:53 PM,62.1,53.1,72,29.88,10.0,Calm,Calm,-,N/A,,Scattered Clouds,0,2013-06-27 03:53:00
8:53 PM,62.1,55.0,78,29.90,10.0,Calm,Calm,-,N/A,,Mostly Cloudy,0,2013-06-27 04:53:00
9:53 PM,59.0,52.0,78,29.93,10.0,SSW,12.7,20.7,N/A,,Overcast,210,2013-06-27 05:53:00
10:53 PM,59.0,51.1,75,29.96,10.0,SW,10.4,-,N/A,,Overcast,220,2013-06-27 06:53:00
11:53 PM,57.9,51.1,78,29.97,10.0,NW,4.6,-,N/A,,Overcast,310,2013-06-27 07:53:00